Terminal Aerodrome Forecast
Issued by NWS

Home | Current Version | Previous Version | Text Only | Print | Product List | Glossary On
Versions: 1 2 3 4 5 6 7 8 9 10 11 12
000
FTUS46 KSTO 291100
TAFSMF
TAF
KSMF 291120Z 2912/3012 16008KT P6SM VCSH SCT050 BKN150
     FM291600 21007KT P6SM BKN200
     FM300100 18013KT P6SM SCT250
     FM300600 15008KT P6SM FEW250=

USA.gov is the U.S. government's official web portal to all federal, state and local government web resources and services.